sensor_id;sensor_type;location;lat;lon;timestamp;P1;durP1;ratioP1;P2;durP2;ratioP2
53959;SDS011;39866;48.638;-2.020;2024-03-23T00:53:10;14.15;;;5.95;;
53959;SDS011;39866;48.638;-2.020;2024-03-23T00:55:36;14.40;;;5.63;;
53959;SDS011;39866;48.638;-2.020;2024-03-23T00:58:01;14.18;;;6.18;;
53959;SDS011;39866;48.638;-2.020;2024-03-23T01:00:26;14.07;;;5.63;;
53959;SDS011;39866;48.638;-2.020;2024-03-23T01:02:52;20.33;;;6.47;;
53959;SDS011;39866;48.638;-2.020;2024-03-23T01:05:17;14.60;;;5.72;;
53959;SDS011;39866;48.638;-2.020;2024-03-23T01:07:43;16.42;;;5.93;;
53959;SDS011;39866;48.638;-2.020;2024-03-23T01:10:08;20.23;;;7.32;;
53959;SDS011;39866;48.638;-2.020;2024-03-23T01:12:34;14.30;;;5.70;;
53959;SDS011;39866;48.638;-2.020;2024-03-23T01:14:59;16.08;;;5.90;;
53959;SDS011;39866;48.638;-2.020;2024-03-23T01:17:24;16.67;;;5.57;;
53959;SDS011;39866;48.638;-2.020;2024-03-23T01:19:50;16.67;;;6.05;;
53959;SDS011;39866;48.638;-2.020;2024-03-23T01:22:15;13.52;;;5.07;;
53959;SDS011;39866;48.638;-2.020;2024-03-23T01:24:40;16.15;;;5.95;;
53959;SDS011;39866;48.638;-2.020;2024-03-23T01:27:06;12.35;;;5.00;;
53959;SDS011;39866;48.638;-2.020;2024-03-23T01:29:31;11.23;;;4.88;;
53959;SDS011;39866;48.638;-2.020;2024-03-23T01:31:56;11.20;;;5.25;;
53959;SDS011;39866;48.638;-2.020;2024-03-23T01:34:22;16.48;;;6.30;;
53959;SDS011;39866;48.638;-2.020;2024-03-23T01:36:47;12.88;;;5.25;;
53959;SDS011;39866;48.638;-2.020;2024-03-23T01:39:13;15.45;;;5.38;;
53959;SDS011;39866;48.638;-2.020;2024-03-23T01:41:39;9.90;;;4.88;;
53959;SDS011;39866;48.638;-2.020;2024-03-23T01:44:07;8.05;;;4.45;;
53959;SDS011;39866;48.638;-2.020;2024-03-23T01:46:33;9.52;;;4.65;;
53959;SDS011;39866;48.638;-2.020;2024-03-23T01:48:58;10.98;;;5.03;;
53959;SDS011;39866;48.638;-2.020;2024-03-23T01:51:24;10.80;;;4.70;;
53959;SDS011;39866;48.638;-2.020;2024-03-23T01:53:51;10.57;;;4.63;;
53959;SDS011;39866;48.638;-2.020;2024-03-23T01:56:18;10.75;;;4.43;;
53959;SDS011;39866;48.638;-2.020;2024-03-23T01:58:43;9.23;;;4.50;;
53959;SDS011;39866;48.638;-2.020;2024-03-23T02:01:08;8.57;;;3.97;;
53959;SDS011;39866;48.638;-2.020;2024-03-23T02:03:34;12.52;;;4.95;;
53959;SDS011;39866;48.638;-2.020;2024-03-23T02:05:59;11.60;;;5.28;;
53959;SDS011;39866;48.638;-2.020;2024-03-23T02:08:25;11.90;;;5.30;;
53959;SDS011;39866;48.638;-2.020;2024-03-23T02:10:50;9.52;;;5.05;;
53959;SDS011;39866;48.638;-2.020;2024-03-23T02:13:17;8.57;;;4.20;;
53959;SDS011;39866;48.638;-2.020;2024-03-23T02:15:43;5.55;;;3.88;;
53959;SDS011;39866;48.638;-2.020;2024-03-23T02:18:09;9.13;;;4.35;;
53959;SDS011;39866;48.638;-2.020;2024-03-23T02:20:35;6.78;;;3.60;;
53959;SDS011;39866;48.638;-2.020;2024-03-23T02:23:01;8.32;;;3.78;;
53959;SDS011;39866;48.638;-2.020;2024-03-23T02:25:26;9.13;;;3.80;;
53959;SDS011;39866;48.638;-2.020;2024-03-23T02:27:52;6.22;;;3.58;;
53959;SDS011;39866;48.638;-2.020;2024-03-23T02:30:19;7.55;;;3.70;;
53959;SDS011;39866;48.638;-2.020;2024-03-23T02:32:45;6.68;;;3.83;;
53959;SDS011;39866;48.638;-2.020;2024-03-23T02:35:10;11.40;;;5.85;;
53959;SDS011;39866;48.638;-2.020;2024-03-23T02:37:35;6.60;;;3.83;;
53959;SDS011;39866;48.638;-2.020;2024-03-23T02:40:01;10.55;;;4.53;;
53959;SDS011;39866;48.638;-2.020;2024-03-23T02:42:26;13.73;;;5.10;;
53959;SDS011;39866;48.638;-2.020;2024-03-23T02:44:52;11.48;;;5.18;;
53959;SDS011;39866;48.638;-2.020;2024-03-23T02:47:17;9.05;;;4.38;;
53959;SDS011;39866;48.638;-2.020;2024-03-23T02:49:42;11.35;;;4.65;;
53959;SDS011;39866;48.638;-2.020;2024-03-23T02:52:08;11.10;;;4.82;;
53959;SDS011;39866;48.638;-2.020;2024-03-23T02:54:33;10.13;;;4.97;;
53959;SDS011;39866;48.638;-2.020;2024-03-23T02:56:58;9.65;;;4.65;;
53959;SDS011;39866;48.638;-2.020;2024-03-23T02:59:24;11.43;;;4.97;;
53959;SDS011;39866;48.638;-2.020;2024-03-23T03:01:49;9.80;;;4.18;;
53959;SDS011;39866;48.638;-2.020;2024-03-23T03:04:15;9.48;;;4.38;;
53959;SDS011;39866;48.638;-2.020;2024-03-23T03:06:40;10.48;;;5.25;;
53959;SDS011;39866;48.638;-2.020;2024-03-23T03:09:06;9.27;;;4.30;;
53959;SDS011;39866;48.638;-2.020;2024-03-23T03:11:31;10.07;;;4.65;;
53959;SDS011;39866;48.638;-2.020;2024-03-23T03:13:56;15.15;;;5.32;;
53959;SDS011;39866;48.638;-2.020;2024-03-23T03:16:22;12.50;;;5.47;;
53959;SDS011;39866;48.638;-2.020;2024-03-23T03:18:47;10.57;;;4.55;;
53959;SDS011;39866;48.638;-2.020;2024-03-23T03:21:12;7.97;;;3.75;;
53959;SDS011;39866;48.638;-2.020;2024-03-23T03:23:38;8.27;;;4.38;;
53959;SDS011;39866;48.638;-2.020;2024-03-23T03:26:04;11.52;;;4.43;;
53959;SDS011;39866;48.638;-2.020;2024-03-23T03:28:30;8.13;;;3.97;;
53959;SDS011;39866;48.638;-2.020;2024-03-23T03:30:57;13.25;;;5.13;;
53959;SDS011;39866;48.638;-2.020;2024-03-23T03:33:23;9.30;;;4.85;;
53959;SDS011;39866;48.638;-2.020;2024-03-23T03:35:48;9.05;;;4.43;;
53959;SDS011;39866;48.638;-2.020;2024-03-23T03:38:14;13.25;;;5.32;;
53959;SDS011;39866;48.638;-2.020;2024-03-23T03:40:39;8.38;;;4.68;;
53959;SDS011;39866;48.638;-2.020;2024-03-23T03:43:06;10.38;;;5.10;;
53959;SDS011;39866;48.638;-2.020;2024-03-23T03:45:31;14.15;;;5.78;;
53959;SDS011;39866;48.638;-2.020;2024-03-23T03:47:57;11.15;;;5.22;;
53959;SDS011;39866;48.638;-2.020;2024-03-23T03:50:22;14.57;;;6.15;;
53959;SDS011;39866;48.638;-2.020;2024-03-23T03:52:48;13.48;;;5.72;;
53959;SDS011;39866;48.638;-2.020;2024-03-23T03:55:14;8.57;;;4.43;;
53959;SDS011;39866;48.638;-2.020;2024-03-23T03:57:40;13.77;;;5.95;;
53959;SDS011;39866;48.638;-2.020;2024-03-23T04:00:06;19.52;;;6.28;;
53959;SDS011;39866;48.638;-2.020;2024-03-23T04:02:32;14.13;;;5.85;;
53959;SDS011;39866;48.638;-2.020;2024-03-23T04:04:57;11.38;;;5.03;;
53959;SDS011;39866;48.638;-2.020;2024-03-23T04:07:22;15.30;;;6.28;;
53959;SDS011;39866;48.638;-2.020;2024-03-23T04:09:48;16.33;;;5.75;;
53959;SDS011;39866;48.638;-2.020;2024-03-23T04:12:14;13.20;;;4.85;;
53959;SDS011;39866;48.638;-2.020;2024-03-23T04:14:40;12.18;;;5.40;;
53959;SDS011;39866;48.638;-2.020;2024-03-23T04:17:06;11.77;;;4.63;;
53959;SDS011;39866;48.638;-2.020;2024-03-23T04:19:31;9.70;;;4.55;;
53959;SDS011;39866;48.638;-2.020;2024-03-23T04:21:56;12.73;;;4.90;;
53959;SDS011;39866;48.638;-2.020;2024-03-23T04:24:22;12.52;;;5.00;;
53959;SDS011;39866;48.638;-2.020;2024-03-23T04:26:47;12.55;;;5.25;;
53959;SDS011;39866;48.638;-2.020;2024-03-23T04:29:13;9.75;;;5.22;;
53959;SDS011;39866;48.638;-2.020;2024-03-23T04:31:38;13.00;;;5.70;;
53959;SDS011;39866;48.638;-2.020;2024-03-23T04:34:04;15.70;;;6.20;;
53959;SDS011;39866;48.638;-2.020;2024-03-23T04:36:29;10.93;;;4.97;;
53959;SDS011;39866;48.638;-2.020;2024-03-23T04:38:56;12.38;;;5.10;;
53959;SDS011;39866;48.638;-2.020;2024-03-23T04:41:22;10.63;;;5.20;;
53959;SDS011;39866;48.638;-2.020;2024-03-23T04:43:47;10.68;;;4.90;;
53959;SDS011;39866;48.638;-2.020;2024-03-23T04:46:12;13.52;;;5.78;;
53959;SDS011;39866;48.638;-2.020;2024-03-23T04:48:38;10.52;;;5.43;;
53959;SDS011;39866;48.638;-2.020;2024-03-23T04:51:03;14.57;;;5.70;;
53959;SDS011;39866;48.638;-2.020;2024-03-23T04:53:29;12.27;;;5.18;;
53959;SDS011;39866;48.638;-2.020;2024-03-23T04:55:57;12.85;;;5.65;;
53959;SDS011;39866;48.638;-2.020;2024-03-23T04:58:24;8.93;;;4.50;;
53959;SDS011;39866;48.638;-2.020;2024-03-23T05:00:56;13.77;;;6.13;;
53959;SDS011;39866;48.638;-2.020;2024-03-23T05:03:22;10.75;;;5.18;;
53959;SDS011;39866;48.638;-2.020;2024-03-23T05:05:48;14.77;;;5.95;;
53959;SDS011;39866;48.638;-2.020;2024-03-23T05:08:14;11.48;;;5.35;;
53959;SDS011;39866;48.638;-2.020;2024-03-23T05:10:43;13.75;;;5.30;;
53959;SDS011;39866;48.638;-2.020;2024-03-23T05:13:09;12.85;;;5.38;;
53959;SDS011;39866;48.638;-2.020;2024-03-23T05:15:34;11.55;;;5.10;;
53959;SDS011;39866;48.638;-2.020;2024-03-23T05:18:00;10.82;;;5.13;;
53959;SDS011;39866;48.638;-2.020;2024-03-23T05:20:25;15.93;;;5.32;;
53959;SDS011;39866;48.638;-2.020;2024-03-23T05:22:51;13.80;;;5.68;;
53959;SDS011;39866;48.638;-2.020;2024-03-23T05:25:16;20.23;;;6.07;;
53959;SDS011;39866;48.638;-2.020;2024-03-23T05:27:41;18.00;;;5.68;;
53959;SDS011;39866;48.638;-2.020;2024-03-23T05:30:07;13.13;;;5.30;;
53959;SDS011;39866;48.638;-2.020;2024-03-23T05:32:34;20.88;;;5.93;;
53959;SDS011;39866;48.638;-2.020;2024-03-23T05:34:59;10.85;;;4.72;;
53959;SDS011;39866;48.638;-2.020;2024-03-23T05:37:24;15.07;;;5.25;;
53959;SDS011;39866;48.638;-2.020;2024-03-23T05:39:50;13.40;;;5.57;;
53959;SDS011;39866;48.638;-2.020;2024-03-23T05:42:16;12.90;;;5.50;;
53959;SDS011;39866;48.638;-2.020;2024-03-23T05:44:45;9.05;;;4.90;;
53959;SDS011;39866;48.638;-2.020;2024-03-23T05:47:11;11.45;;;5.38;;
53959;SDS011;39866;48.638;-2.020;2024-03-23T05:49:39;12.70;;;5.03;;
53959;SDS011;39866;48.638;-2.020;2024-03-23T05:52:05;11.10;;;5.43;;
53959;SDS011;39866;48.638;-2.020;2024-03-23T05:54:30;15.48;;;5.88;;
53959;SDS011;39866;48.638;-2.020;2024-03-23T05:56:55;14.32;;;5.28;;
53959;SDS011;39866;48.638;-2.020;2024-03-23T05:59:21;14.00;;;5.30;;
53959;SDS011;39866;48.638;-2.020;2024-03-23T06:01:49;12.13;;;5.65;;
53959;SDS011;39866;48.638;-2.020;2024-03-23T06:04:14;12.35;;;5.43;;
53959;SDS011;39866;48.638;-2.020;2024-03-23T06:06:39;9.95;;;4.75;;
53959;SDS011;39866;48.638;-2.020;2024-03-23T06:09:05;8.63;;;4.65;;
53959;SDS011;39866;48.638;-2.020;2024-03-23T06:11:30;12.82;;;5.38;;
53959;SDS011;39866;48.638;-2.020;2024-03-23T06:13:56;10.10;;;4.65;;
53959;SDS011;39866;48.638;-2.020;2024-03-23T06:16:21;11.27;;;4.40;;
53959;SDS011;39866;48.638;-2.020;2024-03-23T06:18:50;9.00;;;4.57;;
53959;SDS011;39866;48.638;-2.020;2024-03-23T06:21:16;14.82;;;5.00;;
53959;SDS011;39866;48.638;-2.020;2024-03-23T06:23:41;12.57;;;4.95;;
53959;SDS011;39866;48.638;-2.020;2024-03-23T06:26:07;11.93;;;5.05;;
53959;SDS011;39866;48.638;-2.020;2024-03-23T06:28:33;7.07;;;4.18;;
53959;SDS011;39866;48.638;-2.020;2024-03-23T06:30:58;12.57;;;5.28;;
53959;SDS011;39866;48.638;-2.020;2024-03-23T06:33:24;7.30;;;3.78;;
53959;SDS011;39866;48.638;-2.020;2024-03-23T06:35:50;7.88;;;4.57;;
53959;SDS011;39866;48.638;-2.020;2024-03-23T06:38:17;9.38;;;4.65;;
53959;SDS011;39866;48.638;-2.020;2024-03-23T06:40:42;7.68;;;4.30;;
53959;SDS011;39866;48.638;-2.020;2024-03-23T06:43:07;11.15;;;5.47;;
53959;SDS011;39866;48.638;-2.020;2024-03-23T06:45:33;10.25;;;4.57;;
53959;SDS011;39866;48.638;-2.020;2024-03-23T06:47:59;12.93;;;5.65;;
53959;SDS011;39866;48.638;-2.020;2024-03-23T06:50:24;10.95;;;5.78;;
53959;SDS011;39866;48.638;-2.020;2024-03-23T06:52:50;14.38;;;6.32;;
53959;SDS011;39866;48.638;-2.020;2024-03-23T06:55:15;11.40;;;4.97;;
53959;SDS011;39866;48.638;-2.020;2024-03-23T06:57:40;12.68;;;5.60;;
53959;SDS011;39866;48.638;-2.020;2024-03-23T07:00:06;13.27;;;5.47;;
53959;SDS011;39866;48.638;-2.020;2024-03-23T07:02:35;15.05;;;5.32;;
53959;SDS011;39866;48.638;-2.020;2024-03-23T07:05:00;12.85;;;5.10;;
53959;SDS011;39866;48.638;-2.020;2024-03-23T07:07:25;17.30;;;5.72;;
53959;SDS011;39866;48.638;-2.020;2024-03-23T07:09:52;12.48;;;5.60;;
53959;SDS011;39866;48.638;-2.020;2024-03-23T07:12:17;15.18;;;6.32;;
53959;SDS011;39866;48.638;-2.020;2024-03-23T07:14:43;12.38;;;5.18;;
53959;SDS011;39866;48.638;-2.020;2024-03-23T07:17:08;14.90;;;5.80;;
53959;SDS011;39866;48.638;-2.020;2024-03-23T07:19:33;11.60;;;5.82;;
53959;SDS011;39866;48.638;-2.020;2024-03-23T07:21:59;15.95;;;5.38;;
53959;SDS011;39866;48.638;-2.020;2024-03-23T07:24:24;19.75;;;6.97;;
53959;SDS011;39866;48.638;-2.020;2024-03-23T07:26:50;14.52;;;5.75;;
53959;SDS011;39866;48.638;-2.020;2024-03-23T07:29:16;13.35;;;5.63;;
53959;SDS011;39866;48.638;-2.020;2024-03-23T07:31:41;9.10;;;5.18;;
53959;SDS011;39866;48.638;-2.020;2024-03-23T07:34:07;8.95;;;4.40;;
53959;SDS011;39866;48.638;-2.020;2024-03-23T07:36:32;9.85;;;4.80;;
53959;SDS011;39866;48.638;-2.020;2024-03-23T07:38:57;9.85;;;4.80;;
53959;SDS011;39866;48.638;-2.020;2024-03-23T07:41:23;17.15;;;6.32;;
53959;SDS011;39866;48.638;-2.020;2024-03-23T07:43:48;11.38;;;5.30;;
53959;SDS011;39866;48.638;-2.020;2024-03-23T07:46:14;11.27;;;5.55;;
53959;SDS011;39866;48.638;-2.020;2024-03-23T07:48:41;10.10;;;6.05;;
53959;SDS011;39866;48.638;-2.020;2024-03-23T07:51:08;13.00;;;6.63;;
53959;SDS011;39866;48.638;-2.020;2024-03-23T07:53:35;11.25;;;6.68;;
53959;SDS011;39866;48.638;-2.020;2024-03-23T07:56:05;8.48;;;5.47;;
53959;SDS011;39866;48.638;-2.020;2024-03-23T07:58:31;8.57;;;5.07;;
53959;SDS011;39866;48.638;-2.020;2024-03-23T08:01:03;10.45;;;5.35;;
53959;SDS011;39866;48.638;-2.020;2024-03-23T08:03:35;11.18;;;4.95;;
53959;SDS011;39866;48.638;-2.020;2024-03-23T08:06:11;9.57;;;4.80;;
53959;SDS011;39866;48.638;-2.020;2024-03-23T08:08:42;9.18;;;4.18;;
53959;SDS011;39866;48.638;-2.020;2024-03-23T08:11:08;7.43;;;4.80;;
53959;SDS011;39866;48.638;-2.020;2024-03-23T08:13:34;10.32;;;5.32;;
53959;SDS011;39866;48.638;-2.020;2024-03-23T08:16:01;10.32;;;4.90;;
53959;SDS011;39866;48.638;-2.020;2024-03-23T08:18:28;8.85;;;4.47;;
53959;SDS011;39866;48.638;-2.020;2024-03-23T08:21:00;7.88;;;4.30;;
53959;SDS011;39866;48.638;-2.020;2024-03-23T08:23:27;8.18;;;4.45;;
53959;SDS011;39866;48.638;-2.020;2024-03-23T08:26:02;8.15;;;4.30;;
53959;SDS011;39866;48.638;-2.020;2024-03-23T08:28:29;10.85;;;4.82;;
53959;SDS011;39866;48.638;-2.020;2024-03-23T08:30:54;12.60;;;5.25;;
53959;SDS011;39866;48.638;-2.020;2024-03-23T08:33:21;9.43;;;4.45;;
53959;SDS011;39866;48.638;-2.020;2024-03-23T08:36:03;5.88;;;3.65;;
53959;SDS011;39866;48.638;-2.020;2024-03-23T08:38:30;8.00;;;3.90;;
53959;SDS011;39866;48.638;-2.020;2024-03-23T08:41:00;6.75;;;3.90;;
53959;SDS011;39866;48.638;-2.020;2024-03-23T08:43:28;9.15;;;3.88;;
53959;SDS011;39866;48.638;-2.020;2024-03-23T08:46:03;8.88;;;4.65;;
53959;SDS011;39866;48.638;-2.020;2024-03-23T08:48:35;7.50;;;3.58;;
53959;SDS011;39866;48.638;-2.020;2024-03-23T08:51:09;8.23;;;3.38;;
53959;SDS011;39866;48.638;-2.020;2024-03-23T08:53:35;7.15;;;3.38;;
53959;SDS011;39866;48.638;-2.020;2024-03-23T08:56:01;7.22;;;3.42;;
53959;SDS011;39866;48.638;-2.020;2024-03-23T08:58:28;7.50;;;3.50;;
53959;SDS011;39866;48.638;-2.020;2024-03-23T09:00:54;7.50;;;3.28;;
53959;SDS011;39866;48.638;-2.020;2024-03-23T09:03:25;6.55;;;3.10;;
53959;SDS011;39866;48.638;-2.020;2024-03-23T09:05:51;5.68;;;2.60;;
53959;SDS011;39866;48.638;-2.020;2024-03-23T09:08:17;6.00;;;2.75;;
53959;SDS011;39866;48.638;-2.020;2024-03-23T09:10:42;6.65;;;3.28;;
53959;SDS011;39866;48.638;-2.020;2024-03-23T09:13:08;6.68;;;3.33;;
53959;SDS011;39866;48.638;-2.020;2024-03-23T09:15:34;6.60;;;3.10;;
53959;SDS011;39866;48.638;-2.020;2024-03-23T09:18:02;5.68;;;3.35;;
53959;SDS011;39866;48.638;-2.020;2024-03-23T09:20:28;7.38;;;3.63;;
53959;SDS011;39866;48.638;-2.020;2024-03-23T09:22:53;11.90;;;4.85;;
53959;SDS011;39866;48.638;-2.020;2024-03-23T09:25:19;8.70;;;4.00;;
53959;SDS011;39866;48.638;-2.020;2024-03-23T09:27:46;8.00;;;3.97;;
53959;SDS011;39866;48.638;-2.020;2024-03-23T09:30:12;8.52;;;3.80;;
53959;SDS011;39866;48.638;-2.020;2024-03-23T09:32:38;10.73;;;4.60;;
53959;SDS011;39866;48.638;-2.020;2024-03-23T09:35:04;14.45;;;5.70;;
53959;SDS011;39866;48.638;-2.020;2024-03-23T09:37:29;10.73;;;4.47;;
53959;SDS011;39866;48.638;-2.020;2024-03-23T09:39:55;11.88;;;4.60;;
53959;SDS011;39866;48.638;-2.020;2024-03-23T09:42:20;8.95;;;3.30;;
53959;SDS011;39866;48.638;-2.020;2024-03-23T09:44:46;4.43;;;2.17;;
53959;SDS011;39866;48.638;-2.020;2024-03-23T09:47:15;7.00;;;2.63;;
53959;SDS011;39866;48.638;-2.020;2024-03-23T09:49:41;6.18;;;2.35;;
53959;SDS011;39866;48.638;-2.020;2024-03-23T09:52:07;8.30;;;3.00;;
53959;SDS011;39866;48.638;-2.020;2024-03-23T09:54:32;5.30;;;2.15;;
53959;SDS011;39866;48.638;-2.020;2024-03-23T09:56:58;6.43;;;2.30;;
53959;SDS011;39866;48.638;-2.020;2024-03-23T09:59:23;8.02;;;3.15;;
53959;SDS011;39866;48.638;-2.020;2024-03-23T10:01:51;6.05;;;2.20;;
53959;SDS011;39866;48.638;-2.020;2024-03-23T10:09:35;9.82;;;3.67;;
53959;SDS011;39866;48.638;-2.020;2024-03-23T10:12:10;8.75;;;3.42;;
53959;SDS011;39866;48.638;-2.020;2024-03-23T10:14:39;9.57;;;3.25;;
53959;SDS011;39866;48.638;-2.020;2024-03-23T10:19:48;5.60;;;2.42;;
53959;SDS011;39866;48.638;-2.020;2024-03-23T10:22:17;3.13;;;1.60;;
53959;SDS011;39866;48.638;-2.020;2024-03-23T10:24:43;3.42;;;1.55;;
53959;SDS011;39866;48.638;-2.020;2024-03-23T10:27:08;4.13;;;1.75;;
53959;SDS011;39866;48.638;-2.020;2024-03-23T10:29:33;3.53;;;1.80;;
53959;SDS011;39866;48.638;-2.020;2024-03-23T10:32:08;7.50;;;2.33;;
53959;SDS011;39866;48.638;-2.020;2024-03-23T10:34:35;6.28;;;2.35;;
53959;SDS011;39866;48.638;-2.020;2024-03-23T10:37:02;7.15;;;2.30;;
53959;SDS011;39866;48.638;-2.020;2024-03-23T10:39:38;5.97;;;1.95;;
53959;SDS011;39866;48.638;-2.020;2024-03-23T10:42:05;6.80;;;2.33;;
53959;SDS011;39866;48.638;-2.020;2024-03-23T10:44:37;4.65;;;1.65;;
53959;SDS011;39866;48.638;-2.020;2024-03-23T10:47:03;6.47;;;2.00;;
53959;SDS011;39866;48.638;-2.020;2024-03-23T10:49:30;5.07;;;1.48;;
53959;SDS011;39866;48.638;-2.020;2024-03-23T10:51:59;3.33;;;1.10;;
53959;SDS011;39866;48.638;-2.020;2024-03-23T10:54:26;2.63;;;0.60;;
53959;SDS011;39866;48.638;-2.020;2024-03-23T10:59:32;3.50;;;1.02;;
53959;SDS011;39866;48.638;-2.020;2024-03-23T11:02:01;5.53;;;1.80;;
53959;SDS011;39866;48.638;-2.020;2024-03-23T11:04:31;4.70;;;1.67;;
53959;SDS011;39866;48.638;-2.020;2024-03-23T11:07:46;4.82;;;1.73;;
53959;SDS011;39866;48.638;-2.020;2024-03-23T11:09:52;6.00;;;2.08;;
53959;SDS011;39866;48.638;-2.020;2024-03-23T11:14:47;7.32;;;2.33;;
53959;SDS011;39866;48.638;-2.020;2024-03-23T11:17:17;5.22;;;1.98;;
53959;SDS011;39866;48.638;-2.020;2024-03-23T11:19:44;6.80;;;2.08;;
53959;SDS011;39866;48.638;-2.020;2024-03-23T11:22:17;6.85;;;1.73;;
53959;SDS011;39866;48.638;-2.020;2024-03-23T11:25:24;4.65;;;2.03;;
53959;SDS011;39866;48.638;-2.020;2024-03-23T11:32:52;4.85;;;1.52;;
53959;SDS011;39866;48.638;-2.020;2024-03-23T11:38:14;6.43;;;2.08;;
53959;SDS011;39866;48.638;-2.020;2024-03-23T11:43:12;6.30;;;2.50;;
53959;SDS011;39866;48.638;-2.020;2024-03-23T11:45:40;6.25;;;2.15;;
53959;SDS011;39866;48.638;-2.020;2024-03-23T11:48:08;6.72;;;2.20;;
53959;SDS011;39866;48.638;-2.020;2024-03-23T11:50:42;6.78;;;2.05;;
53959;SDS011;39866;48.638;-2.020;2024-03-23T11:55:41;7.78;;;2.60;;
53959;SDS011;39866;48.638;-2.020;2024-03-23T11:58:20;5.20;;;1.73;;
53959;SDS011;39866;48.638;-2.020;2024-03-23T12:00:59;6.45;;;2.22;;
53959;SDS011;39866;48.638;-2.020;2024-03-23T12:03:28;5.22;;;1.92;;
53959;SDS011;39866;48.638;-2.020;2024-03-23T12:05:55;5.07;;;1.63;;
53959;SDS011;39866;48.638;-2.020;2024-03-23T12:13:36;6.05;;;2.20;;
53959;SDS011;39866;48.638;-2.020;2024-03-23T12:18:36;6.97;;;2.53;;
53959;SDS011;39866;48.638;-2.020;2024-03-23T12:21:08;7.32;;;2.50;;
53959;SDS011;39866;48.638;-2.020;2024-03-23T12:23:34;5.72;;;2.17;;
53959;SDS011;39866;48.638;-2.020;2024-03-23T12:26:00;5.95;;;2.65;;
53959;SDS011;39866;48.638;-2.020;2024-03-23T12:28:25;7.25;;;3.13;;
53959;SDS011;39866;48.638;-2.020;2024-03-23T12:30:51;5.00;;;2.45;;
53959;SDS011;39866;48.638;-2.020;2024-03-23T12:33:20;5.40;;;2.53;;
53959;SDS011;39866;48.638;-2.020;2024-03-23T12:35:51;4.35;;;2.15;;
53959;SDS011;39866;48.638;-2.020;2024-03-23T12:38:17;5.50;;;2.75;;
53959;SDS011;39866;48.638;-2.020;2024-03-23T12:40:46;5.68;;;2.30;;
53959;SDS011;39866;48.638;-2.020;2024-03-23T12:43:15;5.22;;;1.95;;
53959;SDS011;39866;48.638;-2.020;2024-03-23T12:45:41;6.47;;;2.40;;
53959;SDS011;39866;48.638;-2.020;2024-03-23T12:48:11;4.60;;;1.90;;
53959;SDS011;39866;48.638;-2.020;2024-03-23T12:50:36;3.42;;;1.60;;
53959;SDS011;39866;48.638;-2.020;2024-03-23T12:53:04;5.70;;;2.22;;
53959;SDS011;39866;48.638;-2.020;2024-03-23T12:55:29;4.55;;;1.70;;
53959;SDS011;39866;48.638;-2.020;2024-03-23T12:57:55;6.15;;;2.03;;
53959;SDS011;39866;48.638;-2.020;2024-03-23T13:00:21;4.25;;;1.45;;
53959;SDS011;39866;48.638;-2.020;2024-03-23T13:02:46;5.55;;;1.95;;
53959;SDS011;39866;48.638;-2.020;2024-03-23T13:05:12;5.43;;;1.73;;
53959;SDS011;39866;48.638;-2.020;2024-03-23T13:07:37;5.35;;;1.77;;
53959;SDS011;39866;48.638;-2.020;2024-03-23T13:10:03;7.65;;;3.20;;
53959;SDS011;39866;48.638;-2.020;2024-03-23T13:12:30;6.10;;;2.75;;
53959;SDS011;39866;48.638;-2.020;2024-03-23T13:14:56;4.32;;;2.85;;
53959;SDS011;39866;48.638;-2.020;2024-03-23T13:17:21;7.82;;;3.40;;
53959;SDS011;39866;48.638;-2.020;2024-03-23T13:19:46;6.82;;;3.22;;
53959;SDS011;39866;48.638;-2.020;2024-03-23T13:22:12;6.30;;;2.95;;
53959;SDS011;39866;48.638;-2.020;2024-03-23T13:24:37;6.47;;;3.15;;
53959;SDS011;39866;48.638;-2.020;2024-03-23T13:27:03;4.25;;;2.35;;
53959;SDS011;39866;48.638;-2.020;2024-03-23T13:29:30;4.75;;;2.38;;
53959;SDS011;39866;48.638;-2.020;2024-03-23T13:31:55;3.88;;;2.28;;
53959;SDS011;39866;48.638;-2.020;2024-03-23T13:34:21;3.63;;;2.70;;
53959;SDS011;39866;48.638;-2.020;2024-03-23T13:36:47;4.90;;;2.55;;
53959;SDS011;39866;48.638;-2.020;2024-03-23T13:39:13;4.15;;;2.28;;
53959;SDS011;39866;48.638;-2.020;2024-03-23T13:41:44;3.88;;;2.40;;
53959;SDS011;39866;48.638;-2.020;2024-03-23T13:44:10;4.45;;;2.75;;
53959;SDS011;39866;48.638;-2.020;2024-03-23T13:46:37;4.35;;;2.25;;
53959;SDS011;39866;48.638;-2.020;2024-03-23T13:49:03;2.95;;;1.70;;
53959;SDS011;39866;48.638;-2.020;2024-03-23T13:51:29;5.43;;;2.33;;
53959;SDS011;39866;48.638;-2.020;2024-03-23T13:54:00;4.95;;;2.03;;
53959;SDS011;39866;48.638;-2.020;2024-03-23T13:56:26;4.03;;;2.08;;
53959;SDS011;39866;48.638;-2.020;2024-03-23T13:58:56;4.45;;;2.45;;
53959;SDS011;39866;48.638;-2.020;2024-03-23T14:01:21;6.38;;;2.88;;
53959;SDS011;39866;48.638;-2.020;2024-03-23T14:03:47;7.45;;;3.35;;
53959;SDS011;39866;48.638;-2.020;2024-03-23T14:06:13;5.90;;;3.15;;
53959;SDS011;39866;48.638;-2.020;2024-03-23T14:08:38;4.97;;;3.10;;
53959;SDS011;39866;48.638;-2.020;2024-03-23T14:11:07;5.43;;;3.08;;
53959;SDS011;39866;48.638;-2.020;2024-03-23T14:13:33;7.03;;;3.70;;
53959;SDS011;39866;48.638;-2.020;2024-03-23T14:15:59;7.53;;;4.00;;
53959;SDS011;39866;48.638;-2.020;2024-03-23T14:18:25;14.07;;;5.07;;
53959;SDS011;39866;48.638;-2.020;2024-03-23T14:20:56;11.75;;;5.20;;
53959;SDS011;39866;48.638;-2.020;2024-03-23T14:23:25;12.85;;;4.53;;
53959;SDS011;39866;48.638;-2.020;2024-03-23T14:25:55;11.93;;;4.57;;
53959;SDS011;39866;48.638;-2.020;2024-03-23T14:28:23;12.70;;;4.88;;
53959;SDS011;39866;48.638;-2.020;2024-03-23T14:30:49;12.05;;;4.88;;
53959;SDS011;39866;48.638;-2.020;2024-03-23T14:33:15;11.55;;;5.05;;
53959;SDS011;39866;48.638;-2.020;2024-03-23T14:35:41;14.90;;;5.57;;
53959;SDS011;39866;48.638;-2.020;2024-03-23T14:38:07;11.52;;;4.10;;
53959;SDS011;39866;48.638;-2.020;2024-03-23T14:40:32;11.30;;;4.00;;
53959;SDS011;39866;48.638;-2.020;2024-03-23T14:42:58;9.13;;;4.10;;
53959;SDS011;39866;48.638;-2.020;2024-03-23T14:45:23;14.02;;;5.13;;
53959;SDS011;39866;48.638;-2.020;2024-03-23T14:47:51;16.83;;;5.50;;
53959;SDS011;39866;48.638;-2.020;2024-03-23T14:50:17;17.35;;;5.95;;
53959;SDS011;39866;48.638;-2.020;2024-03-23T14:52:46;14.20;;;4.95;;
53959;SDS011;39866;48.638;-2.020;2024-03-23T14:55:14;14.80;;;5.10;;
53959;SDS011;39866;48.638;-2.020;2024-03-23T14:57:40;12.20;;;4.43;;
53959;SDS011;39866;48.638;-2.020;2024-03-23T15:00:06;4.47;;;2.33;;
53959;SDS011;39866;48.638;-2.020;2024-03-23T15:02:33;6.30;;;2.47;;
53959;SDS011;39866;48.638;-2.020;2024-03-23T15:04:59;6.80;;;2.85;;
53959;SDS011;39866;48.638;-2.020;2024-03-23T15:07:25;9.90;;;3.47;;
53959;SDS011;39866;48.638;-2.020;2024-03-23T15:09:50;5.80;;;2.10;;
53959;SDS011;39866;48.638;-2.020;2024-03-23T15:12:15;8.52;;;3.03;;
53959;SDS011;39866;48.638;-2.020;2024-03-23T15:14:41;5.72;;;1.85;;
53959;SDS011;39866;48.638;-2.020;2024-03-23T15:17:06;7.68;;;2.35;;
53959;SDS011;39866;48.638;-2.020;2024-03-23T15:19:34;6.70;;;1.90;;
53959;SDS011;39866;48.638;-2.020;2024-03-23T15:21:59;5.00;;;1.88;;
53959;SDS011;39866;48.638;-2.020;2024-03-23T15:24:24;7.35;;;2.22;;
53959;SDS011;39866;48.638;-2.020;2024-03-23T15:26:50;6.85;;;2.10;;
53959;SDS011;39866;48.638;-2.020;2024-03-23T15:29:17;6.57;;;2.13;;
53959;SDS011;39866;48.638;-2.020;2024-03-23T15:31:43;7.75;;;2.35;;
53959;SDS011;39866;48.638;-2.020;2024-03-23T15:34:08;8.07;;;2.47;;
53959;SDS011;39866;48.638;-2.020;2024-03-23T15:36:37;7.93;;;2.15;;
53959;SDS011;39866;48.638;-2.020;2024-03-23T15:39:06;6.25;;;1.92;;
53959;SDS011;39866;48.638;-2.020;2024-03-23T15:41:34;6.97;;;2.13;;
53959;SDS011;39866;48.638;-2.020;2024-03-23T15:44:00;7.68;;;2.30;;
53959;SDS011;39866;48.638;-2.020;2024-03-23T15:46:27;5.10;;;1.83;;
53959;SDS011;39866;48.638;-2.020;2024-03-23T15:48:52;7.82;;;2.15;;
53959;SDS011;39866;48.638;-2.020;2024-03-23T15:51:19;7.55;;;2.20;;